sensor_id;sensor_type;location;lat;lon;timestamp;P1;durP1;ratioP1;P2;durP2;ratioP2
69744;SDS011;57015;50.120;-5.168;2023-02-12T00:01:42;4.40;;;0.70;;
69744;SDS011;57015;50.120;-5.168;2023-02-12T00:04:08;3.85;;;0.60;;
69744;SDS011;57015;50.120;-5.168;2023-02-12T00:06:33;5.10;;;0.40;;
69744;SDS011;57015;50.120;-5.168;2023-02-12T00:08:59;2.43;;;0.50;;
69744;SDS011;57015;50.120;-5.168;2023-02-12T00:11:25;1.67;;;0.40;;
69744;SDS011;57015;50.120;-5.168;2023-02-12T00:13:52;3.07;;;0.77;;
69744;SDS011;57015;50.120;-5.168;2023-02-12T00:16:20;1.88;;;0.40;;
69744;SDS011;57015;50.120;-5.168;2023-02-12T00:18:46;1.85;;;0.35;;
69744;SDS011;57015;50.120;-5.168;2023-02-12T00:21:12;2.53;;;0.37;;
69744;SDS011;57015;50.120;-5.168;2023-02-12T00:23:38;2.67;;;0.30;;
69744;SDS011;57015;50.120;-5.168;2023-02-12T00:26:09;2.42;;;0.52;;
69744;SDS011;57015;50.120;-5.168;2023-02-12T00:28:36;2.97;;;0.37;;
69744;SDS011;57015;50.120;-5.168;2023-02-12T00:31:09;3.35;;;0.57;;
69744;SDS011;57015;50.120;-5.168;2023-02-12T00:33:36;1.80;;;0.50;;
69744;SDS011;57015;50.120;-5.168;2023-02-12T00:36:02;2.47;;;0.40;;
69744;SDS011;57015;50.120;-5.168;2023-02-12T00:38:28;3.40;;;0.52;;
69744;SDS011;57015;50.120;-5.168;2023-02-12T00:40:53;2.87;;;0.40;;
69744;SDS011;57015;50.120;-5.168;2023-02-12T00:43:19;7.20;;;0.70;;
69744;SDS011;57015;50.120;-5.168;2023-02-12T00:45:44;1.88;;;0.50;;
69744;SDS011;57015;50.120;-5.168;2023-02-12T00:48:10;3.42;;;0.50;;
69744;SDS011;57015;50.120;-5.168;2023-02-12T00:50:36;2.20;;;0.73;;
69744;SDS011;57015;50.120;-5.168;2023-02-12T00:53:02;5.13;;;0.57;;
69744;SDS011;57015;50.120;-5.168;2023-02-12T00:55:27;2.63;;;0.40;;
69744;SDS011;57015;50.120;-5.168;2023-02-12T00:57:53;1.58;;;0.40;;
69744;SDS011;57015;50.120;-5.168;2023-02-12T01:00:18;5.20;;;0.93;;
69744;SDS011;57015;50.120;-5.168;2023-02-12T01:02:44;3.27;;;0.20;;
69744;SDS011;57015;50.120;-5.168;2023-02-12T01:05:09;3.95;;;0.30;;
69744;SDS011;57015;50.120;-5.168;2023-02-12T01:07:34;2.00;;;0.20;;
69744;SDS011;57015;50.120;-5.168;2023-02-12T01:10:01;2.97;;;0.50;;
69744;SDS011;57015;50.120;-5.168;2023-02-12T01:12:26;2.03;;;0.20;;
69744;SDS011;57015;50.120;-5.168;2023-02-12T01:14:52;2.70;;;0.20;;
69744;SDS011;57015;50.120;-5.168;2023-02-12T01:17:17;1.53;;;0.20;;
69744;SDS011;57015;50.120;-5.168;2023-02-12T01:19:43;1.70;;;0.30;;
69744;SDS011;57015;50.120;-5.168;2023-02-12T01:22:08;4.65;;;0.38;;
69744;SDS011;57015;50.120;-5.168;2023-02-12T01:24:33;2.40;;;0.20;;
69744;SDS011;57015;50.120;-5.168;2023-02-12T01:26:59;3.20;;;0.30;;
69744;SDS011;57015;50.120;-5.168;2023-02-12T01:29:24;1.60;;;0.30;;
69744;SDS011;57015;50.120;-5.168;2023-02-12T01:31:50;3.37;;;0.70;;
69744;SDS011;57015;50.120;-5.168;2023-02-12T01:34:15;2.25;;;0.30;;
69744;SDS011;57015;50.120;-5.168;2023-02-12T01:36:40;2.37;;;1.03;;
69744;SDS011;57015;50.120;-5.168;2023-02-12T01:39:06;2.57;;;0.63;;
69744;SDS011;57015;50.120;-5.168;2023-02-12T01:41:33;5.07;;;0.30;;
69744;SDS011;57015;50.120;-5.168;2023-02-12T01:44:08;3.45;;;0.40;;
69744;SDS011;57015;50.120;-5.168;2023-02-12T01:46:45;1.08;;;0.20;;
69744;SDS011;57015;50.120;-5.168;2023-02-12T01:49:16;1.80;;;0.30;;
69744;SDS011;57015;50.120;-5.168;2023-02-12T01:51:47;8.20;;;0.57;;
69744;SDS011;57015;50.120;-5.168;2023-02-12T01:54:15;2.60;;;0.32;;
69744;SDS011;57015;50.120;-5.168;2023-02-12T01:56:41;2.95;;;0.40;;
69744;SDS011;57015;50.120;-5.168;2023-02-12T01:59:07;3.85;;;0.30;;
69744;SDS011;57015;50.120;-5.168;2023-02-12T02:01:33;4.87;;;0.40;;
69744;SDS011;57015;50.120;-5.168;2023-02-12T02:04:04;3.47;;;0.40;;
69744;SDS011;57015;50.120;-5.168;2023-02-12T02:06:33;5.20;;;0.40;;
69744;SDS011;57015;50.120;-5.168;2023-02-12T02:09:00;2.72;;;0.30;;
69744;SDS011;57015;50.120;-5.168;2023-02-12T02:11:26;5.32;;;0.50;;
69744;SDS011;57015;50.120;-5.168;2023-02-12T02:14:10;3.28;;;0.50;;
69744;SDS011;57015;50.120;-5.168;2023-02-12T02:16:56;4.20;;;1.20;;
69744;SDS011;57015;50.120;-5.168;2023-02-12T02:24:48;4.03;;;0.40;;
69744;SDS011;57015;50.120;-5.168;2023-02-12T02:27:48;1.38;;;0.40;;
69744;SDS011;57015;50.120;-5.168;2023-02-12T02:39:16;2.10;;;0.30;;
69744;SDS011;57015;50.120;-5.168;2023-02-12T02:42:00;1.63;;;0.40;;
69744;SDS011;57015;50.120;-5.168;2023-02-12T02:44:34;2.90;;;0.40;;
69744;SDS011;57015;50.120;-5.168;2023-02-12T02:47:00;1.92;;;0.40;;
69744;SDS011;57015;50.120;-5.168;2023-02-12T02:49:32;3.72;;;0.50;;
69744;SDS011;57015;50.120;-5.168;2023-02-12T02:52:06;3.70;;;0.47;;
69744;SDS011;57015;50.120;-5.168;2023-02-12T02:54:37;1.85;;;0.63;;
69744;SDS011;57015;50.120;-5.168;2023-02-12T02:57:07;4.70;;;0.65;;
69744;SDS011;57015;50.120;-5.168;2023-02-12T02:59:42;7.10;;;0.85;;
69744;SDS011;57015;50.120;-5.168;2023-02-12T03:02:20;5.78;;;0.70;;
69744;SDS011;57015;50.120;-5.168;2023-02-12T03:04:54;2.47;;;0.23;;
69744;SDS011;57015;50.120;-5.168;2023-02-12T03:07:52;3.75;;;0.40;;
69744;SDS011;57015;50.120;-5.168;2023-02-12T03:10:23;4.50;;;0.40;;
69744;SDS011;57015;50.120;-5.168;2023-02-12T03:12:53;4.38;;;1.05;;
69744;SDS011;57015;50.120;-5.168;2023-02-12T03:17:52;1.63;;;0.40;;
69744;SDS011;57015;50.120;-5.168;2023-02-12T03:20:21;5.25;;;0.70;;
69744;SDS011;57015;50.120;-5.168;2023-02-12T03:22:54;2.53;;;0.43;;
69744;SDS011;57015;50.120;-5.168;2023-02-12T03:25:36;2.20;;;0.50;;
69744;SDS011;57015;50.120;-5.168;2023-02-12T03:28:08;2.53;;;0.85;;
69744;SDS011;57015;50.120;-5.168;2023-02-12T03:36:32;2.40;;;0.40;;
69744;SDS011;57015;50.120;-5.168;2023-02-12T03:42:08;2.17;;;0.47;;
69744;SDS011;57015;50.120;-5.168;2023-02-12T03:44:45;2.20;;;0.40;;
69744;SDS011;57015;50.120;-5.168;2023-02-12T03:52:35;4.28;;;0.55;;
69744;SDS011;57015;50.120;-5.168;2023-02-12T03:55:01;3.95;;;0.70;;
69744;SDS011;57015;50.120;-5.168;2023-02-12T03:57:29;2.25;;;0.85;;
69744;SDS011;57015;50.120;-5.168;2023-02-12T03:59:58;4.95;;;0.60;;
69744;SDS011;57015;50.120;-5.168;2023-02-12T04:02:28;2.60;;;0.63;;
69744;SDS011;57015;50.120;-5.168;2023-02-12T04:04:54;4.40;;;0.60;;
69744;SDS011;57015;50.120;-5.168;2023-02-12T04:07:19;2.63;;;1.07;;
69744;SDS011;57015;50.120;-5.168;2023-02-12T04:09:44;2.63;;;0.97;;
69744;SDS011;57015;50.120;-5.168;2023-02-12T04:27:55;3.53;;;0.90;;
69744;SDS011;57015;50.120;-5.168;2023-02-12T04:30:37;4.20;;;0.95;;
69744;SDS011;57015;50.120;-5.168;2023-02-12T04:33:07;3.63;;;1.00;;
69744;SDS011;57015;50.120;-5.168;2023-02-12T04:38:18;4.10;;;0.80;;
69744;SDS011;57015;50.120;-5.168;2023-02-12T04:40:45;2.33;;;0.67;;
69744;SDS011;57015;50.120;-5.168;2023-02-12T04:43:10;3.70;;;0.60;;
69744;SDS011;57015;50.120;-5.168;2023-02-12T04:45:36;3.50;;;0.57;;
69744;SDS011;57015;50.120;-5.168;2023-02-12T04:48:02;3.63;;;0.60;;
69744;SDS011;57015;50.120;-5.168;2023-02-12T04:50:33;2.17;;;0.60;;
69744;SDS011;57015;50.120;-5.168;2023-02-12T04:53:03;2.28;;;0.50;;
69744;SDS011;57015;50.120;-5.168;2023-02-12T04:55:28;4.70;;;0.70;;
69744;SDS011;57015;50.120;-5.168;2023-02-12T04:57:53;4.23;;;0.60;;
69744;SDS011;57015;50.120;-5.168;2023-02-12T05:00:19;3.13;;;0.60;;
69744;SDS011;57015;50.120;-5.168;2023-02-12T05:02:44;1.52;;;0.50;;
69744;SDS011;57015;50.120;-5.168;2023-02-12T05:05:10;3.47;;;0.90;;
69744;SDS011;57015;50.120;-5.168;2023-02-12T05:07:35;3.00;;;0.80;;
69744;SDS011;57015;50.120;-5.168;2023-02-12T05:10:01;4.53;;;0.80;;
69744;SDS011;57015;50.120;-5.168;2023-02-12T05:12:26;3.20;;;1.02;;
69744;SDS011;57015;50.120;-5.168;2023-02-12T05:14:52;3.07;;;0.90;;
69744;SDS011;57015;50.120;-5.168;2023-02-12T05:17:17;4.70;;;1.53;;
69744;SDS011;57015;50.120;-5.168;2023-02-12T05:19:42;4.80;;;1.73;;
69744;SDS011;57015;50.120;-5.168;2023-02-12T05:22:08;3.60;;;1.33;;
69744;SDS011;57015;50.120;-5.168;2023-02-12T05:24:33;7.83;;;2.10;;
69744;SDS011;57015;50.120;-5.168;2023-02-12T05:26:58;6.53;;;1.33;;
69744;SDS011;57015;50.120;-5.168;2023-02-12T05:29:24;4.90;;;1.30;;
69744;SDS011;57015;50.120;-5.168;2023-02-12T05:31:49;3.88;;;1.67;;
69744;SDS011;57015;50.120;-5.168;2023-02-12T05:34:14;3.53;;;1.70;;
69744;SDS011;57015;50.120;-5.168;2023-02-12T05:36:40;4.07;;;1.60;;
69744;SDS011;57015;50.120;-5.168;2023-02-12T05:39:05;3.23;;;1.33;;
69744;SDS011;57015;50.120;-5.168;2023-02-12T05:41:31;5.80;;;2.00;;
69744;SDS011;57015;50.120;-5.168;2023-02-12T05:43:59;5.97;;;1.93;;
69744;SDS011;57015;50.120;-5.168;2023-02-12T05:46:25;4.82;;;1.70;;
69744;SDS011;57015;50.120;-5.168;2023-02-12T05:48:51;7.60;;;2.50;;
69744;SDS011;57015;50.120;-5.168;2023-02-12T05:51:21;6.10;;;2.50;;
69744;SDS011;57015;50.120;-5.168;2023-02-12T05:53:48;5.85;;;1.85;;
69744;SDS011;57015;50.120;-5.168;2023-02-12T05:58:41;6.63;;;2.97;;
69744;SDS011;57015;50.120;-5.168;2023-02-12T06:01:13;7.53;;;3.13;;
69744;SDS011;57015;50.120;-5.168;2023-02-12T06:03:42;6.70;;;2.88;;
69744;SDS011;57015;50.120;-5.168;2023-02-12T06:06:08;7.00;;;2.60;;
69744;SDS011;57015;50.120;-5.168;2023-02-12T06:08:34;7.78;;;3.50;;
69744;SDS011;57015;50.120;-5.168;2023-02-12T06:11:04;7.33;;;3.50;;
69744;SDS011;57015;50.120;-5.168;2023-02-12T06:13:31;7.68;;;3.42;;
69744;SDS011;57015;50.120;-5.168;2023-02-12T06:15:57;6.57;;;3.50;;
69744;SDS011;57015;50.120;-5.168;2023-02-12T06:18:22;6.35;;;3.22;;
69744;SDS011;57015;50.120;-5.168;2023-02-12T06:20:48;8.02;;;3.67;;
69744;SDS011;57015;50.120;-5.168;2023-02-12T06:23:13;7.20;;;3.80;;
69744;SDS011;57015;50.120;-5.168;2023-02-12T06:25:39;6.87;;;3.40;;
69744;SDS011;57015;50.120;-5.168;2023-02-12T06:28:04;6.93;;;3.80;;
69744;SDS011;57015;50.120;-5.168;2023-02-12T06:30:30;8.43;;;3.63;;
69744;SDS011;57015;50.120;-5.168;2023-02-12T06:32:58;8.57;;;4.07;;
69744;SDS011;57015;50.120;-5.168;2023-02-12T06:35:23;8.60;;;3.53;;
69744;SDS011;57015;50.120;-5.168;2023-02-12T06:37:48;7.77;;;3.83;;
69744;SDS011;57015;50.120;-5.168;2023-02-12T06:40:14;7.90;;;3.60;;
69744;SDS011;57015;50.120;-5.168;2023-02-12T06:42:40;8.05;;;3.15;;
69744;SDS011;57015;50.120;-5.168;2023-02-12T06:45:05;9.27;;;3.60;;
69744;SDS011;57015;50.120;-5.168;2023-02-12T06:47:31;10.45;;;4.05;;
69744;SDS011;57015;50.120;-5.168;2023-02-12T06:49:56;7.73;;;3.70;;
69744;SDS011;57015;50.120;-5.168;2023-02-12T06:52:21;6.53;;;3.10;;
69744;SDS011;57015;50.120;-5.168;2023-02-12T06:54:47;10.10;;;4.43;;
69744;SDS011;57015;50.120;-5.168;2023-02-12T06:57:12;7.93;;;3.70;;
69744;SDS011;57015;50.120;-5.168;2023-02-12T06:59:38;10.40;;;4.07;;
69744;SDS011;57015;50.120;-5.168;2023-02-12T07:02:03;10.57;;;3.83;;
69744;SDS011;57015;50.120;-5.168;2023-02-12T07:04:28;9.33;;;3.90;;
69744;SDS011;57015;50.120;-5.168;2023-02-12T07:06:54;9.27;;;4.40;;
69744;SDS011;57015;50.120;-5.168;2023-02-12T07:09:19;11.43;;;4.60;;
69744;SDS011;57015;50.120;-5.168;2023-02-12T07:11:45;8.80;;;4.30;;
69744;SDS011;57015;50.120;-5.168;2023-02-12T07:14:12;10.23;;;4.43;;
69744;SDS011;57015;50.120;-5.168;2023-02-12T07:16:39;10.48;;;4.40;;
69744;SDS011;57015;50.120;-5.168;2023-02-12T07:19:04;9.18;;;3.67;;
69744;SDS011;57015;50.120;-5.168;2023-02-12T07:21:30;9.30;;;3.67;;
69744;SDS011;57015;50.120;-5.168;2023-02-12T07:23:56;9.00;;;4.57;;
69744;SDS011;57015;50.120;-5.168;2023-02-12T07:26:21;12.00;;;4.65;;
69744;SDS011;57015;50.120;-5.168;2023-02-12T07:28:47;7.80;;;3.58;;
69744;SDS011;57015;50.120;-5.168;2023-02-12T07:31:18;11.40;;;4.85;;
69744;SDS011;57015;50.120;-5.168;2023-02-12T07:33:45;11.75;;;5.53;;
69744;SDS011;57015;50.120;-5.168;2023-02-12T07:36:12;12.57;;;5.50;;
69744;SDS011;57015;50.120;-5.168;2023-02-12T07:38:39;13.05;;;6.38;;
69744;SDS011;57015;50.120;-5.168;2023-02-12T07:41:13;12.35;;;6.07;;
69744;SDS011;57015;50.120;-5.168;2023-02-12T07:43:43;10.43;;;5.03;;
69744;SDS011;57015;50.120;-5.168;2023-02-12T07:46:11;14.50;;;5.50;;
69744;SDS011;57015;50.120;-5.168;2023-02-12T07:48:37;11.55;;;4.78;;
69744;SDS011;57015;50.120;-5.168;2023-02-12T07:51:05;9.77;;;4.77;;
69744;SDS011;57015;50.120;-5.168;2023-02-12T07:53:31;12.73;;;5.28;;
69744;SDS011;57015;50.120;-5.168;2023-02-12T07:58:36;11.52;;;4.93;;
69744;SDS011;57015;50.120;-5.168;2023-02-12T08:01:11;14.63;;;5.40;;
69744;SDS011;57015;50.120;-5.168;2023-02-12T08:03:44;11.35;;;6.03;;
69744;SDS011;57015;50.120;-5.168;2023-02-12T08:06:12;12.97;;;5.60;;
69744;SDS011;57015;50.120;-5.168;2023-02-12T08:08:45;14.10;;;5.72;;
69744;SDS011;57015;50.120;-5.168;2023-02-12T08:11:12;12.27;;;5.53;;
69744;SDS011;57015;50.120;-5.168;2023-02-12T08:13:38;9.90;;;5.25;;
69744;SDS011;57015;50.120;-5.168;2023-02-12T08:16:06;11.10;;;6.00;;
69744;SDS011;57015;50.120;-5.168;2023-02-12T08:18:34;12.85;;;6.28;;
69744;SDS011;57015;50.120;-5.168;2023-02-12T08:21:00;13.48;;;7.43;;
69744;SDS011;57015;50.120;-5.168;2023-02-12T08:23:27;11.27;;;6.60;;
69744;SDS011;57015;50.120;-5.168;2023-02-12T08:25:52;15.20;;;6.80;;
69744;SDS011;57015;50.120;-5.168;2023-02-12T08:28:17;13.70;;;6.70;;
69744;SDS011;57015;50.120;-5.168;2023-02-12T08:30:43;12.87;;;6.30;;
69744;SDS011;57015;50.120;-5.168;2023-02-12T08:33:08;17.63;;;6.90;;
69744;SDS011;57015;50.120;-5.168;2023-02-12T08:35:34;12.57;;;6.83;;
69744;SDS011;57015;50.120;-5.168;2023-02-12T08:37:59;14.27;;;6.53;;
69744;SDS011;57015;50.120;-5.168;2023-02-12T08:40:24;14.17;;;7.47;;
69744;SDS011;57015;50.120;-5.168;2023-02-12T08:42:51;11.73;;;6.13;;
69744;SDS011;57015;50.120;-5.168;2023-02-12T08:45:17;13.32;;;6.38;;
69744;SDS011;57015;50.120;-5.168;2023-02-12T08:47:42;13.37;;;6.63;;
69744;SDS011;57015;50.120;-5.168;2023-02-12T08:50:07;12.63;;;6.70;;
69744;SDS011;57015;50.120;-5.168;2023-02-12T08:52:34;14.77;;;6.57;;
69744;SDS011;57015;50.120;-5.168;2023-02-12T08:54:59;15.35;;;6.57;;
69744;SDS011;57015;50.120;-5.168;2023-02-12T08:57:25;13.77;;;6.27;;
69744;SDS011;57015;50.120;-5.168;2023-02-12T08:59:50;15.00;;;6.83;;
69744;SDS011;57015;50.120;-5.168;2023-02-12T09:02:15;17.03;;;7.37;;
69744;SDS011;57015;50.120;-5.168;2023-02-12T09:04:41;16.35;;;6.43;;
69744;SDS011;57015;50.120;-5.168;2023-02-12T09:07:06;13.67;;;6.47;;
69744;SDS011;57015;50.120;-5.168;2023-02-12T09:09:32;13.63;;;6.37;;
69744;SDS011;57015;50.120;-5.168;2023-02-12T09:11:57;13.23;;;7.20;;
69744;SDS011;57015;50.120;-5.168;2023-02-12T09:14:22;14.67;;;6.47;;
69744;SDS011;57015;50.120;-5.168;2023-02-12T09:16:48;13.20;;;6.18;;
69744;SDS011;57015;50.120;-5.168;2023-02-12T09:19:16;13.80;;;7.07;;
69744;SDS011;57015;50.120;-5.168;2023-02-12T09:21:42;20.70;;;8.13;;
69744;SDS011;57015;50.120;-5.168;2023-02-12T09:24:07;20.50;;;9.87;;
69744;SDS011;57015;50.120;-5.168;2023-02-12T09:26:33;22.10;;;9.20;;
69744;SDS011;57015;50.120;-5.168;2023-02-12T09:29:00;17.47;;;9.00;;
69744;SDS011;57015;50.120;-5.168;2023-02-12T09:31:26;18.58;;;9.73;;
69744;SDS011;57015;50.120;-5.168;2023-02-12T09:33:53;22.23;;;11.20;;
69744;SDS011;57015;50.120;-5.168;2023-02-12T09:36:22;22.02;;;10.65;;
69744;SDS011;57015;50.120;-5.168;2023-02-12T09:38:48;20.27;;;9.77;;
69744;SDS011;57015;50.120;-5.168;2023-02-12T09:43:56;15.10;;;8.55;;
69744;SDS011;57015;50.120;-5.168;2023-02-12T09:49:08;16.70;;;8.37;;
69744;SDS011;57015;50.120;-5.168;2023-02-12T09:51:36;18.58;;;9.23;;
69744;SDS011;57015;50.120;-5.168;2023-02-12T09:54:04;16.48;;;8.27;;
69744;SDS011;57015;50.120;-5.168;2023-02-12T09:56:33;19.00;;;8.00;;
69744;SDS011;57015;50.120;-5.168;2023-02-12T09:59:00;18.85;;;8.82;;
69744;SDS011;57015;50.120;-5.168;2023-02-12T10:01:30;20.40;;;10.37;;
69744;SDS011;57015;50.120;-5.168;2023-02-12T10:03:55;26.88;;;9.93;;
69744;SDS011;57015;50.120;-5.168;2023-02-12T10:06:23;18.50;;;9.30;;
69744;SDS011;57015;50.120;-5.168;2023-02-12T10:19:13;21.50;;;10.23;;
69744;SDS011;57015;50.120;-5.168;2023-02-12T10:22:02;22.58;;;10.10;;
69744;SDS011;57015;50.120;-5.168;2023-02-12T10:27:15;23.42;;;10.55;;
69744;SDS011;57015;50.120;-5.168;2023-02-12T10:29:42;25.63;;;11.85;;
69744;SDS011;57015;50.120;-5.168;2023-02-12T10:32:26;24.48;;;10.75;;
69744;SDS011;57015;50.120;-5.168;2023-02-12T10:34:55;20.92;;;10.40;;
69744;SDS011;57015;50.120;-5.168;2023-02-12T10:37:30;24.80;;;11.23;;
69744;SDS011;57015;50.120;-5.168;2023-02-12T10:40:03;23.17;;;11.48;;
69744;SDS011;57015;50.120;-5.168;2023-02-12T10:42:37;24.70;;;11.93;;
69744;SDS011;57015;50.120;-5.168;2023-02-12T10:45:04;19.67;;;10.73;;
69744;SDS011;57015;50.120;-5.168;2023-02-12T10:47:30;22.08;;;11.05;;
69744;SDS011;57015;50.120;-5.168;2023-02-12T10:50:00;24.00;;;11.50;;
69744;SDS011;57015;50.120;-5.168;2023-02-12T10:52:35;22.93;;;12.03;;
69744;SDS011;57015;50.120;-5.168;2023-02-12T10:55:02;22.88;;;11.13;;
69744;SDS011;57015;50.120;-5.168;2023-02-12T10:57:47;27.10;;;11.68;;
69744;SDS011;57015;50.120;-5.168;2023-02-12T11:00:15;21.17;;;11.07;;
69744;SDS011;57015;50.120;-5.168;2023-02-12T11:05:38;27.48;;;11.63;;
69744;SDS011;57015;50.120;-5.168;2023-02-12T11:08:05;26.40;;;11.10;;
69744;SDS011;57015;50.120;-5.168;2023-02-12T11:10:32;23.00;;;11.53;;
69744;SDS011;57015;50.120;-5.168;2023-02-12T11:13:02;22.77;;;11.43;;
69744;SDS011;57015;50.120;-5.168;2023-02-12T11:15:45;26.58;;;13.20;;
69744;SDS011;57015;50.120;-5.168;2023-02-12T11:18:19;20.95;;;10.10;;
69744;SDS011;57015;50.120;-5.168;2023-02-12T11:20:50;24.10;;;12.10;;
69744;SDS011;57015;50.120;-5.168;2023-02-12T11:25:59;21.67;;;12.02;;
69744;SDS011;57015;50.120;-5.168;2023-02-12T11:28:25;23.88;;;11.88;;
69744;SDS011;57015;50.120;-5.168;2023-02-12T11:31:01;21.33;;;11.52;;
69744;SDS011;57015;50.120;-5.168;2023-02-12T11:38:26;26.60;;;13.03;;
69744;SDS011;57015;50.120;-5.168;2023-02-12T11:40:55;27.10;;;13.93;;
69744;SDS011;57015;50.120;-5.168;2023-02-12T11:43:22;24.92;;;13.15;;
69744;SDS011;57015;50.120;-5.168;2023-02-12T11:45:49;30.17;;;14.00;;
69744;SDS011;57015;50.120;-5.168;2023-02-12T11:48:21;30.50;;;14.77;;
69744;SDS011;57015;50.120;-5.168;2023-02-12T11:50:49;28.33;;;14.33;;
69744;SDS011;57015;50.120;-5.168;2023-02-12T11:53:21;25.85;;;14.63;;
69744;SDS011;57015;50.120;-5.168;2023-02-12T11:55:55;31.17;;;14.23;;
69744;SDS011;57015;50.120;-5.168;2023-02-12T11:58:23;25.77;;;12.57;;
69744;SDS011;57015;50.120;-5.168;2023-02-12T12:00:52;25.77;;;13.38;;
69744;SDS011;57015;50.120;-5.168;2023-02-12T12:06:26;31.85;;;14.25;;
69744;SDS011;57015;50.120;-5.168;2023-02-12T12:08:59;26.98;;;14.48;;
69744;SDS011;57015;50.120;-5.168;2023-02-12T12:14:33;27.45;;;13.27;;
69744;SDS011;57015;50.120;-5.168;2023-02-12T12:17:24;33.13;;;14.90;;
69744;SDS011;57015;50.120;-5.168;2023-02-12T12:20:21;28.20;;;12.98;;
69744;SDS011;57015;50.120;-5.168;2023-02-12T12:25:26;26.85;;;13.18;;
69744;SDS011;57015;50.120;-5.168;2023-02-12T12:33:50;28.83;;;14.00;;
69744;SDS011;57015;50.120;-5.168;2023-02-12T12:48:13;28.58;;;13.38;;
69744;SDS011;57015;50.120;-5.168;2023-02-12T12:50:51;31.80;;;14.13;;
69744;SDS011;57015;50.120;-5.168;2023-02-12T12:56:18;29.85;;;13.13;;
69744;SDS011;57015;50.120;-5.168;2023-02-12T13:23:35;21.90;;;10.57;;
69744;SDS011;57015;50.120;-5.168;2023-02-12T13:28:55;35.88;;;10.15;;
69744;SDS011;57015;50.120;-5.168;2023-02-12T13:31:23;21.45;;;8.93;;
69744;SDS011;57015;50.120;-5.168;2023-02-12T13:33:54;21.13;;;10.02;;
69744;SDS011;57015;50.120;-5.168;2023-02-12T13:36:28;19.27;;;9.73;;
69744;SDS011;57015;50.120;-5.168;2023-02-12T13:39:08;20.87;;;9.30;;
69744;SDS011;57015;50.120;-5.168;2023-02-12T13:41:51;19.30;;;8.30;;
69744;SDS011;57015;50.120;-5.168;2023-02-12T13:44:26;18.38;;;8.60;;
69744;SDS011;57015;50.120;-5.168;2023-02-12T13:47:13;18.90;;;8.30;;
69744;SDS011;57015;50.120;-5.168;2023-02-12T13:55:38;15.43;;;7.85;;
69744;SDS011;57015;50.120;-5.168;2023-02-12T14:03:22;16.80;;;7.78;;
69744;SDS011;57015;50.120;-5.168;2023-02-12T14:06:02;16.43;;;7.90;;
69744;SDS011;57015;50.120;-5.168;2023-02-12T14:08:41;16.23;;;7.82;;
69744;SDS011;57015;50.120;-5.168;2023-02-12T14:11:10;14.50;;;7.30;;
69744;SDS011;57015;50.120;-5.168;2023-02-12T14:21:58;14.43;;;6.85;;
69744;SDS011;57015;50.120;-5.168;2023-02-12T14:24:58;15.73;;;7.37;;
69744;SDS011;57015;50.120;-5.168;2023-02-12T14:29:59;13.50;;;6.80;;
69744;SDS011;57015;50.120;-5.168;2023-02-12T14:35:35;12.70;;;6.57;;
69744;SDS011;57015;50.120;-5.168;2023-02-12T14:43:24;15.32;;;7.30;;
69744;SDS011;57015;50.120;-5.168;2023-02-12T14:45:52;15.02;;;7.50;;
69744;SDS011;57015;50.120;-5.168;2023-02-12T14:51:13;14.33;;;6.07;;
69744;SDS011;57015;50.120;-5.168;2023-02-12T14:53:41;14.10;;;6.35;;
69744;SDS011;57015;50.120;-5.168;2023-02-12T14:56:08;16.45;;;6.80;;
69744;SDS011;57015;50.120;-5.168;2023-02-12T14:58:34;14.25;;;6.28;;
69744;SDS011;57015;50.120;-5.168;2023-02-12T15:01:00;15.27;;;5.80;;
69744;SDS011;57015;50.120;-5.168;2023-02-12T15:03:37;12.73;;;6.07;;
69744;SDS011;57015;50.120;-5.168;2023-02-12T15:06:17;12.02;;;5.47;;
69744;SDS011;57015;50.120;-5.168;2023-02-12T15:11:25;12.65;;;5.93;;
69744;SDS011;57015;50.120;-5.168;2023-02-12T15:21:53;13.55;;;5.30;;
69744;SDS011;57015;50.120;-5.168;2023-02-12T15:24:22;9.40;;;4.40;;
69744;SDS011;57015;50.120;-5.168;2023-02-12T15:26:53;11.95;;;4.85;;
69744;SDS011;57015;50.120;-5.168;2023-02-12T15:29:40;15.30;;;6.07;;
69744;SDS011;57015;50.120;-5.168;2023-02-12T15:32:08;9.13;;;4.82;;
69744;SDS011;57015;50.120;-5.168;2023-02-12T15:34:44;13.97;;;5.60;;
69744;SDS011;57015;50.120;-5.168;2023-02-12T15:37:15;11.73;;;4.95;;
69744;SDS011;57015;50.120;-5.168;2023-02-12T15:39:48;10.48;;;4.85;;
69744;SDS011;57015;50.120;-5.168;2023-02-12T15:42:33;12.85;;;4.95;;
69744;SDS011;57015;50.120;-5.168;2023-02-12T15:47:34;9.80;;;4.45;;
69744;SDS011;57015;50.120;-5.168;2023-02-12T15:49:59;10.27;;;4.85;;
69744;SDS011;57015;50.120;-5.168;2023-02-12T15:52:32;10.43;;;4.28;;
69744;SDS011;57015;50.120;-5.168;2023-02-12T15:54:59;13.07;;;4.90;;
69744;SDS011;57015;50.120;-5.168;2023-02-12T15:57:25;14.20;;;4.60;;
69744;SDS011;57015;50.120;-5.168;2023-02-12T15:59:51;9.68;;;4.50;;
69744;SDS011;57015;50.120;-5.168;2023-02-12T16:02:20;13.75;;;4.68;;
69744;SDS011;57015;50.120;-5.168;2023-02-12T16:04:49;11.40;;;4.70;;
69744;SDS011;57015;50.120;-5.168;2023-02-12T16:07:15;10.75;;;4.95;;
69744;SDS011;57015;50.120;-5.168;2023-02-12T16:09:41;10.23;;;4.57;;
69744;SDS011;57015;50.120;-5.168;2023-02-12T16:12:07;8.32;;;3.38;;
69744;SDS011;57015;50.120;-5.168;2023-02-12T16:14:38;11.52;;;4.40;;
69744;SDS011;57015;50.120;-5.168;2023-02-12T16:20:01;10.38;;;4.50;;
69744;SDS011;57015;50.120;-5.168;2023-02-12T16:22:40;12.50;;;4.78;;
69744;SDS011;57015;50.120;-5.168;2023-02-12T16:25:14;11.48;;;4.40;;
69744;SDS011;57015;50.120;-5.168;2023-02-12T16:27:48;13.90;;;5.32;;
69744;SDS011;57015;50.120;-5.168;2023-02-12T16:32:57;11.35;;;4.88;;
69744;SDS011;57015;50.120;-5.168;2023-02-12T16:35:31;17.08;;;5.60;;
69744;SDS011;57015;50.120;-5.168;2023-02-12T16:41:18;10.65;;;4.72;;
69744;SDS011;57015;50.120;-5.168;2023-02-12T16:46:16;12.85;;;4.90;;
69744;SDS011;57015;50.120;-5.168;2023-02-12T16:48:44;12.30;;;4.88;;
69744;SDS011;57015;50.120;-5.168;2023-02-12T16:51:30;12.10;;;4.63;;
69744;SDS011;57015;50.120;-5.168;2023-02-12T16:53:58;10.80;;;4.97;;
69744;SDS011;57015;50.120;-5.168;2023-02-12T16:56:25;12.33;;;4.73;;
69744;SDS011;57015;50.120;-5.168;2023-02-12T16:58:53;13.10;;;4.47;;
69744;SDS011;57015;50.120;-5.168;2023-02-12T17:01:27;13.02;;;5.00;;
69744;SDS011;57015;50.120;-5.168;2023-02-12T17:03:55;9.13;;;3.92;;
69744;SDS011;57015;50.120;-5.168;2023-02-12T17:06:22;10.73;;;3.90;;
69744;SDS011;57015;50.120;-5.168;2023-02-12T17:08:50;10.40;;;4.40;;
69744;SDS011;57015;50.120;-5.168;2023-02-12T17:11:16;9.48;;;4.55;;
69744;SDS011;57015;50.120;-5.168;2023-02-12T17:13:51;9.52;;;4.10;;
69744;SDS011;57015;50.120;-5.168;2023-02-12T17:16:19;10.05;;;4.35;;
69744;SDS011;57015;50.120;-5.168;2023-02-12T17:18:44;9.50;;;3.27;;
69744;SDS011;57015;50.120;-5.168;2023-02-12T17:23:44;11.52;;;3.78;;
69744;SDS011;57015;50.120;-5.168;2023-02-12T17:26:10;6.87;;;3.10;;
69744;SDS011;57015;50.120;-5.168;2023-02-12T17:28:36;11.40;;;3.47;;
69744;SDS011;57015;50.120;-5.168;2023-02-12T17:31:02;9.30;;;3.15;;
69744;SDS011;57015;50.120;-5.168;2023-02-12T17:33:30;7.93;;;3.10;;
69744;SDS011;57015;50.120;-5.168;2023-02-12T17:35:56;8.10;;;3.10;;
69744;SDS011;57015;50.120;-5.168;2023-02-12T17:38:25;8.80;;;3.40;;
69744;SDS011;57015;50.120;-5.168;2023-02-12T17:40:50;9.40;;;3.88;;
69744;SDS011;57015;50.120;-5.168;2023-02-12T17:43:16;11.63;;;3.78;;
69744;SDS011;57015;50.120;-5.168;2023-02-12T17:45:41;12.73;;;3.97;;
69744;SDS011;57015;50.120;-5.168;2023-02-12T17:48:07;12.00;;;4.30;;
69744;SDS011;57015;50.120;-5.168;2023-02-12T17:50:36;11.20;;;3.53;;
69744;SDS011;57015;50.120;-5.168;2023-02-12T17:53:02;10.18;;;3.70;;
69744;SDS011;57015;50.120;-5.168;2023-02-12T17:55:28;10.13;;;4.07;;
69744;SDS011;57015;50.120;-5.168;2023-02-12T17:57:53;12.10;;;4.25;;